Create Tblcommutelog Verified Points Advance Search
| # | Trip ID | Id Commuter | Trip Date | Trip Num | Current Lat | Current Lng | Delta Distance | Current Time | Activity | Activity Confidence | Current Speed | |
|---|---|---|---|---|---|---|---|---|---|---|---|---|
| 69641 | 250409_781727_0_0806 | 781727 | (not set) | (not set) | 38.862281056969 | -77.087889343658 | 1.2028 | 2025-04-09 12:18:26.114 | unknown | 100 | 0 | |
| 69642 | 250409_779784_16456978_0803 | 779784 | (not set) | (not set) | 39.161672975159 | -77.234285163575 | 3.7851 | 2025-04-09 12:18:26.362 | in_vehicle | 100 | 4.0680572567883 | |
| 69643 | 250409_766975_16479173_0805 | 766975 | (not set) | (not set) | 39.017849785358 | -77.101773896228 | 2.5953 | 2025-04-09 12:18:26.446 | in_vehicle | 100 | 11.560435237423 | |
| 69644 | 250409_781042_0_0758 | 781042 | (not set) | (not set) | 38.896504638418 | -77.018823566126 | 6.9192 | 2025-04-09 12:18:27.187 | in_vehicle | 100 | -0.44703925898772 | |
| 69645 | 250409_781042_0_0758 | 781042 | (not set) | (not set) | 38.896102190483 | -77.016714635863 | 6.9192 | 2025-04-09 12:18:27.357 | in_vehicle | 100 | -0.44703925898772 | |
| 69646 | 250409_778489_16479639_0803 | 778489 | (not set) | (not set) | 38.804804147257 | -77.042430387882 | 0.1568 | 2025-04-09 12:18:28.612 | in_vehicle | 100 | 0.73314438473987 | |
| 69647 | 250409_778489_16479639_0803 | 778489 | (not set) | (not set) | 38.804804147257 | -77.042430387882 | 0.1568 | 2025-04-09 12:18:28.715 | in_vehicle | 100 | 0.73314438473987 | |
| 69648 | 250409_772964_0_0818 | 772964 | (not set) | (not set) | 38.769334989066 | -77.162011171426 | 0 | 2025-04-09 12:18:29.307 | in_vehicle | 100 | 10.237199030819 | |
| 69649 | 250409_772964_0_0818 | 772964 | (not set) | (not set) | 38.769334989066 | -77.162011171426 | 0 | 2025-04-09 12:18:29.433 | in_vehicle | 100 | 10.237199030819 | |
| 69650 | 250409_751043_16497756_0809 | 751043 | (not set) | (not set) | 38.933634496986 | -76.98922670263 | 1.4974 | 2025-04-09 12:18:29.709 | on_bicycle | 100 | 2.9549295019089 | |
| 69651 | 250409_781975_16497756_0808 | 781975 | (not set) | (not set) | 38.697198096191 | -77.225747831632 | 4.4067 | 2025-04-09 12:18:30.379 | in_vehicle | 100 | 15.780485842267 | |
| 69652 | 250409_780745_16421763_0752 | 780745 | (not set) | (not set) | 38.993509849392 | -77.466568418338 | 11.1212 | 2025-04-09 12:18:31.295 | in_vehicle | 100 | 12.74955966633 | |
| 69653 | 250409_769852_16513578_0801 | 769852 | (not set) | (not set) | 38.941708076837 | -77.061986394193 | 7.0073 | 2025-04-09 12:18:31.363 | in_vehicle | 100 | -0.44703925898772 | |
| 69654 | 250409_781042_0_0758 | 781042 | (not set) | (not set) | 38.898236209336 | -77.027911153584 | 7.5406 | 2025-04-09 12:18:33.647 | in_vehicle | 100 | -0.44703925898772 | |
| 69655 | 250409_772317_6438355_0759 | 772317 | (not set) | (not set) | 38.915448395769 | -77.058256629115 | 3.4185 | 2025-04-09 12:18:34.313 | unknown | 100 | 3.6478403533398 | |
| 69656 | 250409_773112_6438355_0807 | 773112 | (not set) | (not set) | 38.964950694493 | -77.047045333672 | 1.6049 | 2025-04-09 12:18:34.482 | in_vehicle | 100 | 3.312560909099 | |
| 69657 | 250409_783748_6441454_0811 | 783748 | (not set) | (not set) | 39.0574633 | -77.0802525 | 1.4189 | 2025-04-09 12:18:35.446 | in_vehicle | 100 | 4.9442542044042 | |
| 69658 | 250409_781042_0_0758 | 781042 | (not set) | (not set) | 38.896579513385 | -77.019347067579 | 7.5406 | 2025-04-09 12:18:35.922 | in_vehicle | 100 | -0.44703925898772 | |
| 69659 | 250409_731669_16507744_0703 | 731669 | (not set) | (not set) | 38.777710032115 | -77.434426807529 | 11.5891 | 2025-04-09 12:18:35.971 | in_vehicle | 100 | 9.687340742264 | |
| 69660 | 250409_781042_0_0758 | 781042 | (not set) | (not set) | 38.89704223829 | -77.021582427884 | 7.5406 | 2025-04-09 12:18:37.782 | in_vehicle | 100 | -0.44703925898772 |